Time;durP1;ratioP1;P1;durP2;ratioP2;P2;SDS_P1;SDS_P2;PMS_P1;PMS_P2;Temp;Humidity;BMP_temperature;BMP_pressure;BME280_temperature;BME280_humidity;BME280_pressure;Samples;Min_cycle;Max_cycle;Signal;HPM_P1;HPM_P2
2021/08/18 00:02:09;;;;;;;0.90;0.90;;;22.50;59.90;;;;;;5071716;28;20251;-64
2021/08/18 00:04:39;;;;;;;0.90;0.80;;;22.50;59.70;;;;;;5088146;28;20242;-64
2021/08/18 00:07:09;;;;;;;0.93;0.93;;;22.50;59.90;;;;;;5078625;28;20197;-64
2021/08/18 00:09:39;;;;;;;1.30;1.20;;;22.50;59.90;;;;;;5087409;28;20204;-65
2021/08/18 00:12:09;;;;;;;1.53;1.07;;;22.50;59.90;;;;;;5076697;28;20208;-64
2021/08/18 00:14:52;;;;;;;3.30;1.10;;;22.50;59.90;;;;;;5088282;28;20315;-64
2021/08/18 00:17:33;;;;;;;1.20;1.10;;;22.50;59.90;;;;;;5086237;28;20262;-64
2021/08/18 00:20:18;;;;;;;1.07;1.03;;;22.50;60.00;;;;;;5077407;28;20281;-64
2021/08/18 00:22:50;;;;;;;1.17;1.07;;;22.50;60.00;;;;;;5086775;28;20649;-64
2021/08/18 00:25:20;;;;;;;1.77;1.10;;;22.50;60.00;;;;;;5078791;28;20208;-64
2021/08/18 00:27:53;;;;;;;1.40;1.30;;;22.50;60.00;;;;;;5088137;28;20631;-65
2021/08/18 00:30:22;;;;;;;1.83;1.30;;;22.50;60.00;;;;;;5071189;28;20199;-64
2021/08/18 00:32:55;;;;;;;1.20;1.00;;;22.50;60.00;;;;;;5083350;28;20193;-64
2021/08/18 00:35:24;;;;;;;1.70;1.10;;;22.50;60.00;;;;;;5082594;28;20216;-64
2021/08/18 00:37:56;;;;;;;1.10;1.00;;;22.50;60.10;;;;;;5069430;28;20667;-64
2021/08/18 00:40:26;;;;;;;2.20;1.20;;;22.50;60.10;;;;;;5082294;28;20201;-64
2021/08/18 00:42:57;;;;;;;1.67;1.07;;;22.50;60.00;;;;;;5066740;28;20736;-64
2021/08/18 00:45:25;;;;;;;1.07;1.03;;;22.50;60.20;;;;;;5079493;28;20213;-65
2021/08/18 00:47:54;;;;;;;0.97;0.97;;;22.50;60.00;;;;;;5077679;28;20198;-65
2021/08/18 00:50:27;;;;;;;1.10;1.10;;;22.50;60.00;;;;;;5063611;28;20197;-65
2021/08/18 00:52:59;;;;;;;1.00;0.90;;;22.50;60.00;;;;;;5081030;28;20270;-65
2021/08/18 00:55:32;;;;;;;1.27;0.90;;;22.50;59.70;;;;;;5089305;28;20719;-65
2021/08/18 00:58:04;;;;;;;0.80;0.80;;;22.50;60.00;;;;;;5069791;28;20196;-65
2021/08/18 01:00:36;;;;;;;0.77;0.77;;;22.50;59.80;;;;;;5086273;28;20744;-65
2021/08/18 01:03:09;;;;;;;1.67;0.90;;;22.50;59.80;;;;;;5085635;28;20245;-65
2021/08/18 01:05:37;;;;;;;1.37;1.10;;;22.50;59.90;;;;;;5087258;28;20212;-65
2021/08/18 01:08:07;;;;;;;1.00;0.90;;;22.40;59.70;;;;;;5073046;28;20626;-65
2021/08/18 01:10:41;;;;;;;1.13;1.10;;;22.40;59.90;;;;;;5089014;28;20223;-65
2021/08/18 01:13:10;;;;;;;1.20;1.10;;;22.50;59.90;;;;;;5089590;28;20209;-65
2021/08/18 01:15:43;;;;;;;0.80;0.80;;;22.40;59.60;;;;;;5082365;28;20225;-65
2021/08/18 01:18:13;;;;;;;0.87;0.80;;;22.40;59.80;;;;;;5082872;28;20251;-65
2021/08/18 01:20:44;;;;;;;1.13;0.90;;;22.40;59.90;;;;;;5083445;28;20205;-65
2021/08/18 01:23:19;;;;;;;1.67;0.77;;;22.40;59.80;;;;;;5080989;28;20249;-65
2021/08/18 01:25:53;;;;;;;0.93;0.90;;;22.40;59.70;;;;;;5078811;28;20201;-65
2021/08/18 01:28:30;;;;;;;1.87;1.00;;;22.40;59.80;;;;;;5098897;28;20197;-65
2021/08/18 01:31:02;;;;;;;1.70;1.10;;;22.40;59.80;;;;;;5080280;28;20704;-65
2021/08/18 01:33:39;;;;;;;1.30;1.20;;;22.40;59.80;;;;;;5069279;28;20209;-65
2021/08/18 01:36:07;;;;;;;1.00;0.90;;;22.40;59.90;;;;;;5078141;28;20219;-65
2021/08/18 01:38:37;;;;;;;1.40;1.13;;;22.40;59.90;;;;;;5085816;28;20208;-65
2021/08/18 01:41:09;;;;;;;1.23;1.00;;;22.40;59.90;;;;;;5078745;28;20213;-65
2021/08/18 01:43:40;;;;;;;1.20;1.10;;;22.40;59.90;;;;;;5083904;28;20214;-65
2021/08/18 01:46:11;;;;;;;1.17;1.00;;;22.40;59.90;;;;;;5076769;28;20272;-65
2021/08/18 01:48:40;;;;;;;1.03;1.00;;;22.40;59.90;;;;;;5081447;28;20216;-65
2021/08/18 01:51:11;;;;;;;2.30;1.07;;;22.40;59.90;;;;;;5080856;28;20209;-65
2021/08/18 01:53:43;;;;;;;1.57;0.90;;;22.40;59.90;;;;;;5078476;28;20837;-65
2021/08/18 01:56:17;;;;;;;1.53;1.07;;;22.40;59.90;;;;;;5063307;28;20227;-65
2021/08/18 01:58:49;;;;;;;1.13;0.90;;;22.40;59.90;;;;;;5081205;28;20184;-65
2021/08/18 02:01:21;;;;;;;1.87;1.17;;;22.40;59.90;;;;;;5091141;28;20214;-65
2021/08/18 02:03:50;;;;;;;1.40;1.30;;;22.50;60.00;;;;;;5077885;28;20208;-64
2021/08/18 02:06:22;;;;;;;1.10;1.00;;;22.40;59.90;;;;;;5090801;28;20359;-64
2021/08/18 02:08:55;;;;;;;1.40;1.00;;;22.40;59.90;;;;;;5075113;28;20643;-64
2021/08/18 02:11:26;;;;;;;1.20;1.00;;;22.40;59.90;;;;;;5089588;28;20206;-65
2021/08/18 02:13:58;;;;;;;1.73;1.13;;;22.40;59.90;;;;;;5091414;28;20228;-65
2021/08/18 02:16:28;;;;;;;1.53;1.10;;;22.40;59.80;;;;;;5087141;28;20716;-64
2021/08/18 02:19:05;;;;;;;1.20;1.00;;;22.40;59.90;;;;;;5085454;28;20209;-64
2021/08/18 02:21:39;;;;;;;2.00;1.00;;;22.40;59.90;;;;;;5085100;28;20220;-64
2021/08/18 02:24:08;;;;;;;1.47;1.17;;;22.40;60.00;;;;;;5062186;28;20690;-64
2021/08/18 02:26:37;;;;;;;4.20;0.93;;;22.40;60.00;;;;;;5083355;28;20561;-65
2021/08/18 02:29:09;;;;;;;1.20;0.90;;;22.40;60.00;;;;;;5080678;28;20204;-65
2021/08/18 02:31:38;;;;;;;1.43;1.20;;;22.40;60.00;;;;;;5083068;28;20204;-64
2021/08/18 02:34:12;;;;;;;1.30;1.20;;;22.40;60.00;;;;;;5081914;28;20418;-64
2021/08/18 02:36:40;;;;;;;1.27;1.00;;;22.40;60.00;;;;;;5082980;28;20189;-64
2021/08/18 02:39:10;;;;;;;1.10;1.10;;;22.40;60.00;;;;;;5089335;28;21639;-65
2021/08/18 02:41:38;;;;;;;1.40;1.10;;;22.40;60.00;;;;;;5081485;28;20216;-64
2021/08/18 02:44:07;;;;;;;1.37;1.07;;;22.40;60.10;;;;;;5088193;28;20217;-64
2021/08/18 02:46:37;;;;;;;2.10;1.03;;;22.40;60.70;;;;;;5090023;28;20653;-65
2021/08/18 02:49:09;;;;;;;1.63;1.23;;;22.40;60.10;;;;;;5090446;28;20193;-64
2021/08/18 02:51:38;;;;;;;1.30;1.20;;;22.40;60.00;;;;;;5087554;28;20198;-64
2021/08/18 02:54:10;;;;;;;0.80;0.80;;;22.40;59.90;;;;;;5091137;28;20205;-65
2021/08/18 02:56:38;;;;;;;1.10;1.00;;;22.40;60.00;;;;;;5086152;28;20228;-65
2021/08/18 02:59:07;;;;;;;2.00;1.10;;;22.40;60.00;;;;;;5086770;28;20214;-65
2021/08/18 03:01:38;;;;;;;1.90;0.90;;;22.40;60.00;;;;;;5080439;28;20193;-65
2021/08/18 03:04:07;;;;;;;1.47;1.20;;;22.40;60.10;;;;;;5084352;28;20216;-65
2021/08/18 03:06:38;;;;;;;1.37;1.27;;;22.40;60.00;;;;;;5082540;28;20209;-65
2021/08/18 03:09:07;;;;;;;1.43;1.23;;;22.40;60.10;;;;;;5086049;28;20207;-65
2021/08/18 03:11:35;;;;;;;2.03;1.30;;;22.40;60.00;;;;;;5091190;28;20204;-65
2021/08/18 03:14:03;;;;;;;1.23;1.13;;;22.40;60.20;;;;;;5081843;28;20575;-65
2021/08/18 03:16:31;;;;;;;1.87;1.30;;;22.40;60.20;;;;;;5088802;28;20308;-65
2021/08/18 03:19:02;;;;;;;1.40;1.30;;;22.40;60.10;;;;;;5079316;28;20215;-65
2021/08/18 03:21:34;;;;;;;2.57;1.37;;;22.40;60.20;;;;;;5085429;28;20649;-65
2021/08/18 03:24:04;;;;;;;1.53;1.40;;;22.40;60.00;;;;;;5061917;28;20663;-65
2021/08/18 03:26:44;;;;;;;1.60;1.30;;;22.40;60.10;;;;;;5090385;28;20403;-65
2021/08/18 03:29:12;;;;;;;1.10;1.00;;;22.40;60.10;;;;;;5081640;28;20241;-65
2021/08/18 03:31:43;;;;;;;1.40;1.30;;;22.40;60.10;;;;;;5087047;28;20219;-65
2021/08/18 03:34:19;;;;;;;1.50;1.10;;;22.40;60.10;;;;;;5074529;28;20662;-65
2021/08/18 03:36:49;;;;;;;1.40;1.20;;;22.40;60.20;;;;;;5085200;28;20225;-65
2021/08/18 03:39:22;;;;;;;1.20;1.10;;;22.40;60.20;;;;;;5081058;28;20205;-65
2021/08/18 03:41:52;;;;;;;1.33;1.10;;;22.40;60.10;;;;;;5081319;28;20840;-65
2021/08/18 03:44:21;;;;;;;2.87;1.20;;;22.40;60.20;;;;;;5088508;28;20197;-65
2021/08/18 03:46:51;;;;;;;1.23;1.03;;;22.40;60.10;;;;;;5098806;28;20219;-65
2021/08/18 03:49:22;;;;;;;1.10;1.00;;;22.40;60.20;;;;;;5098646;28;20658;-65
2021/08/18 03:51:58;;;;;;;1.70;1.40;;;22.40;60.20;;;;;;5080692;28;20643;-65
2021/08/18 03:54:31;;;;;;;2.50;1.50;;;22.40;60.20;;;;;;5069228;28;20208;-65
2021/08/18 03:57:01;;;;;;;1.17;0.93;;;22.40;60.20;;;;;;5086479;28;20731;-65
2021/08/18 03:59:30;;;;;;;1.30;1.20;;;22.40;60.10;;;;;;5087699;28;20559;-65
2021/08/18 04:02:02;;;;;;;2.03;1.53;;;22.40;60.20;;;;;;5080495;28;20206;-65
2021/08/18 04:04:47;;;;;;;1.20;1.10;;;22.40;60.30;;;;;;5088799;28;20288;-65
2021/08/18 04:07:18;;;;;;;2.23;1.50;;;22.40;60.00;;;;;;5076416;28;20254;-65
2021/08/18 04:09:46;;;;;;;1.73;1.50;;;22.40;59.90;;;;;;5086901;28;20210;-65
2021/08/18 04:12:18;;;;;;;1.67;1.53;;;22.40;60.10;;;;;;5096332;28;20193;-65
2021/08/18 04:14:49;;;;;;;1.37;1.27;;;22.40;60.00;;;;;;5073517;28;20241;-65
2021/08/18 04:17:17;;;;;;;1.50;1.40;;;22.40;60.00;;;;;;5049344;28;20273;-62
2021/08/18 04:19:45;;;;;;;2.07;1.40;;;22.40;60.00;;;;;;5040114;28;20201;-62
2021/08/18 04:22:14;;;;;;;1.87;1.70;;;22.40;59.80;;;;;;5077515;28;20677;-65
2021/08/18 04:24:50;;;;;;;2.23;1.60;;;22.40;60.00;;;;;;5071151;28;20190;-65
2021/08/18 04:27:17;;;;;;;1.60;1.50;;;22.40;60.00;;;;;;5072991;28;20262;-65
2021/08/18 04:29:45;;;;;;;2.27;1.50;;;22.40;60.00;;;;;;5023211;28;20507;-65
2021/08/18 04:32:18;;;;;;;2.40;1.70;;;22.40;59.90;;;;;;5078828;28;20277;-63
2021/08/18 04:34:47;;;;;;;6.63;2.30;;;22.40;59.80;;;;;;5061423;28;20502;-63
2021/08/18 04:37:17;;;;;;;3.13;2.00;;;22.40;60.00;;;;;;5073823;28;20202;-65
2021/08/18 04:39:48;;;;;;;2.30;2.10;;;22.40;59.90;;;;;;5062648;28;20205;-65
2021/08/18 04:42:18;;;;;;;2.13;1.93;;;22.40;60.00;;;;;;5072639;28;20710;-62
2021/08/18 04:44:51;;;;;;;1.70;1.60;;;22.40;60.10;;;;;;5021026;28;20572;-63
2021/08/18 04:47:22;;;;;;;2.20;2.00;;;22.40;59.80;;;;;;5064858;28;20194;-65
2021/08/18 04:49:54;;;;;;;2.57;2.00;;;22.30;60.00;;;;;;5058502;28;20193;-65
2021/08/18 04:52:25;;;;;;;3.27;2.00;;;22.40;60.00;;;;;;5077755;28;20185;-65
2021/08/18 04:54:56;;;;;;;2.33;2.00;;;22.40;59.80;;;;;;5051152;28;20650;-65
2021/08/18 04:57:30;;;;;;;2.20;2.10;;;22.40;60.00;;;;;;5065980;28;20185;-63
2021/08/18 05:00:12;;;;;;;2.50;2.30;;;22.40;60.00;;;;;;5062026;28;20205;-63
2021/08/18 05:02:40;;;;;;;2.30;2.10;;;22.40;59.90;;;;;;5069456;28;20193;-65
2021/08/18 05:05:11;;;;;;;2.57;2.20;;;22.40;59.90;;;;;;5069269;28;20220;-63
2021/08/18 05:07:43;;;;;;;2.40;2.30;;;22.40;59.80;;;;;;5052075;28;20676;-63
2021/08/18 05:10:14;;;;;;;2.53;2.33;;;22.40;59.90;;;;;;5066899;28;20275;-66
2021/08/18 05:12:45;;;;;;;2.50;2.30;;;22.40;59.70;;;;;;5035386;28;20190;-66
2021/08/18 05:15:17;;;;;;;2.73;2.50;;;22.40;59.80;;;;;;5065329;28;20686;-65
2021/08/18 05:17:49;;;;;;;2.30;2.10;;;22.30;59.80;;;;;;5038155;28;21201;-65
2021/08/18 05:20:21;;;;;;;2.80;2.60;;;22.40;59.90;;;;;;5055852;28;20606;-64
2021/08/18 05:22:52;;;;;;;2.63;2.43;;;22.40;59.90;;;;;;5052901;28;20201;-65
2021/08/18 05:25:23;;;;;;;3.37;3.13;;;22.30;59.60;;;;;;5064296;28;20196;-65
2021/08/18 05:27:54;;;;;;;3.33;2.90;;;22.40;59.90;;;;;;5042371;28;20210;-65
2021/08/18 05:30:24;;;;;;;2.83;2.63;;;22.40;60.00;;;;;;5052280;28;20638;-65
2021/08/18 05:32:55;;;;;;;3.80;2.50;;;22.40;59.90;;;;;;5068221;28;20204;-66
2021/08/18 05:35:25;;;;;;;3.10;2.90;;;22.30;59.70;;;;;;5071696;28;20210;-62
2021/08/18 05:37:56;;;;;;;3.70;2.53;;;22.30;59.90;;;;;;5075131;28;20247;-63
2021/08/18 05:40:27;;;;;;;2.67;2.47;;;22.40;60.00;;;;;;5056446;28;20229;-63
2021/08/18 05:42:58;;;;;;;3.27;2.97;;;22.30;60.10;;;;;;5073453;28;20694;-63
2021/08/18 05:45:29;;;;;;;2.93;2.73;;;22.30;60.20;;;;;;5061741;28;20252;-65
2021/08/18 05:47:59;;;;;;;3.80;3.50;;;22.40;60.10;;;;;;5054254;28;20199;-65
2021/08/18 05:50:27;;;;;;;5.67;3.43;;;22.40;60.30;;;;;;5059917;28;20206;-65
2021/08/18 05:52:59;;;;;;;3.70;3.40;;;22.40;60.30;;;;;;5069957;28;20217;-65
2021/08/18 05:55:29;;;;;;;3.90;3.50;;;22.40;60.50;;;;;;5066983;28;20255;-65
2021/08/18 05:57:58;;;;;;;4.00;3.70;;;22.40;60.40;;;;;;5067970;28;20624;-64
2021/08/18 06:00:28;;;;;;;3.90;3.50;;;22.40;60.60;;;;;;5060217;28;20651;-62
2021/08/18 06:02:59;;;;;;;3.87;3.57;;;22.30;60.50;;;;;;5066244;28;20196;-62
2021/08/18 06:05:38;;;;;;;4.43;3.80;;;22.30;60.50;;;;;;5033294;28;20263;-64
2021/08/18 06:08:08;;;;;;;4.23;3.83;;;22.40;60.60;;;;;;5066757;28;20526;-65
2021/08/18 06:10:36;;;;;;;4.47;4.13;;;22.30;60.50;;;;;;5066494;28;20197;-63
2021/08/18 06:13:03;;;;;;;4.80;4.40;;;22.40;61.00;;;;;;5061103;28;20202;-63
2021/08/18 06:15:35;;;;;;;5.37;4.07;;;22.40;61.10;;;;;;5067384;28;20218;-62
2021/08/18 06:18:05;;;;;;;4.60;4.20;;;22.40;61.20;;;;;;5060934;28;20189;-63
2021/08/18 06:20:48;;;;;;;4.93;4.43;;;22.40;60.90;;;;;;5058469;28;20221;-64
2021/08/18 06:23:20;;;;;;;5.50;3.97;;;22.40;61.70;;;;;;5061646;28;20255;-64
2021/08/18 06:25:52;;;;;;;5.87;4.60;;;22.40;61.00;;;;;;5056785;28;20651;-65
2021/08/18 06:28:25;;;;;;;5.10;4.70;;;22.40;61.40;;;;;;5072691;28;20205;-64
2021/08/18 06:30:53;;;;;;;5.67;5.27;;;22.40;61.20;;;;;;5070621;28;20210;-63
2021/08/18 06:33:22;;;;;;;5.90;5.40;;;22.40;61.20;;;;;;5068904;28;20213;-63
2021/08/18 06:35:54;;;;;;;7.03;5.10;;;22.40;61.50;;;;;;5070047;28;20221;-65
2021/08/18 06:38:25;;;;;;;6.10;5.53;;;22.30;61.10;;;;;;5072516;28;20216;-64
2021/08/18 06:40:55;;;;;;;5.77;4.77;;;22.40;61.30;;;;;;5070615;28;20190;-66
2021/08/18 06:43:25;;;;;;;8.27;4.93;;;22.40;61.00;;;;;;5051259;28;20201;-64
2021/08/18 06:45:58;;;;;;;5.47;4.20;;;22.30;61.10;;;;;;5066367;28;20241;-63
2021/08/18 06:48:30;;;;;;;6.40;5.43;;;22.40;60.90;;;;;;5067044;28;20213;-63
2021/08/18 06:50:59;;;;;;;6.00;5.40;;;22.40;61.20;;;;;;5064193;28;20588;-65
2021/08/18 06:53:31;;;;;;;7.27;5.23;;;22.40;61.40;;;;;;5070453;28;20247;-65
2021/08/18 06:55:59;;;;;;;6.37;5.70;;;22.40;61.10;;;;;;5052913;28;20858;-65
2021/08/18 06:58:29;;;;;;;6.00;5.17;;;22.40;61.10;;;;;;5067557;28;20322;-65
2021/08/18 07:00:57;;;;;;;5.57;5.13;;;22.40;61.20;;;;;;5069435;28;20295;-65
2021/08/18 07:03:28;;;;;;;6.10;5.50;;;22.40;60.90;;;;;;5068550;28;20619;-65
2021/08/18 07:05:58;;;;;;;6.03;5.50;;;22.40;61.00;;;;;;5070499;28;20194;-65
2021/08/18 07:08:28;;;;;;;6.20;5.70;;;22.40;61.10;;;;;;5046026;28;20655;-64
2021/08/18 07:10:58;;;;;;;7.10;6.10;;;22.40;61.00;;;;;;5067721;28;20200;-63
2021/08/18 07:13:29;;;;;;;7.70;6.97;;;22.40;61.10;;;;;;5064956;28;20237;-63
2021/08/18 07:16:00;;;;;;;6.37;5.80;;;22.40;61.40;;;;;;5082380;28;20229;-63
2021/08/18 07:18:32;;;;;;;6.43;5.83;;;22.40;61.20;;;;;;5087911;28;20201;-63
2021/08/18 07:21:04;;;;;;;6.00;5.50;;;22.40;61.30;;;;;;5086580;28;20208;-64
2021/08/18 07:23:33;;;;;;;6.53;6.03;;;22.40;61.20;;;;;;5077202;28;20206;-65
2021/08/18 07:26:04;;;;;;;6.53;6.03;;;22.40;61.40;;;;;;5085734;28;20213;-64
2021/08/18 07:28:37;;;;;;;6.17;5.53;;;22.40;61.10;;;;;;5074653;28;20330;-64
2021/08/18 07:31:04;;;;;;;6.50;5.90;;;22.50;61.30;;;;;;5075208;28;20211;-64
2021/08/18 07:33:31;;;;;;;6.77;6.27;;;22.40;61.40;;;;;;5073725;28;20640;-64
2021/08/18 07:35:59;;;;;;;6.77;6.27;;;22.50;61.50;;;;;;5087633;28;20209;-63
2021/08/18 07:38:28;;;;;;;6.20;5.70;;;22.50;61.30;;;;;;5066766;28;20266;-64
2021/08/18 07:40:58;;;;;;;6.77;6.07;;;22.40;61.40;;;;;;5050326;28;20781;-64
2021/08/18 07:43:28;;;;;;;7.03;6.43;;;22.40;61.30;;;;;;5087412;28;20216;-64
2021/08/18 07:46:01;;;;;;;6.50;6.00;;;22.50;61.50;;;;;;5084308;28;20205;-65
2021/08/18 07:48:31;;;;;;;6.03;5.60;;;22.40;61.10;;;;;;5080985;28;20595;-65
2021/08/18 07:51:01;;;;;;;6.33;5.73;;;22.40;61.30;;;;;;5050577;28;20635;-63
2021/08/18 07:53:31;;;;;;;7.13;6.07;;;22.50;61.00;;;;;;5065834;28;20623;-63
2021/08/18 07:56:02;;;;;;;7.40;6.80;;;22.40;61.40;;;;;;5082439;28;20231;-65
2021/08/18 07:58:31;;;;;;;6.23;5.73;;;22.40;61.60;;;;;;5088772;28;20215;-67
2021/08/18 08:01:02;;;;;;;6.23;5.73;;;22.40;61.20;;;;;;5079097;28;20200;-68
2021/08/18 08:03:33;;;;;;;6.23;5.67;;;22.50;61.10;;;;;;5067093;28;20193;-66
2021/08/18 08:06:06;;;;;;;6.50;5.93;;;22.60;61.40;;;;;;5077304;28;20198;-67
2021/08/18 08:08:36;;;;;;;6.80;5.80;;;22.60;61.50;;;;;;5087992;28;20204;-67
2021/08/18 08:11:07;;;;;;;6.63;6.13;;;22.60;61.50;;;;;;5068947;28;20213;-67
2021/08/18 08:13:39;;;;;;;6.23;5.73;;;22.70;61.60;;;;;;5068466;28;20228;-68
2021/08/18 08:16:11;;;;;;;7.23;6.63;;;22.70;61.40;;;;;;5070206;28;20234;-68
2021/08/18 08:18:43;;;;;;;7.37;6.77;;;22.70;61.40;;;;;;5088426;28;20220;-67
2021/08/18 08:21:16;;;;;;;6.20;5.70;;;22.80;62.00;;;;;;5079952;28;20579;-70
2021/08/18 08:23:48;;;;;;;6.10;5.50;;;22.80;61.10;;;;;;5089417;28;20250;-68
2021/08/18 08:26:19;;;;;;;6.13;5.63;;;22.90;61.10;;;;;;5071519;28;20208;-67
2021/08/18 08:28:48;;;;;;;7.00;6.40;;;22.90;61.00;;;;;;5052649;28;20243;-66
2021/08/18 08:31:17;;;;;;;6.37;5.70;;;22.90;61.10;;;;;;5079234;28;20208;-69
2021/08/18 08:33:48;;;;;;;6.67;6.07;;;22.90;60.90;;;;;;5071274;28;20205;-67
2021/08/18 08:36:16;;;;;;;6.17;5.63;;;23.00;61.10;;;;;;5077161;28;20253;-68
2021/08/18 08:38:46;;;;;;;6.80;6.30;;;23.00;61.00;;;;;;5089496;28;20197;-68
2021/08/18 08:41:17;;;;;;;6.67;6.17;;;23.10;61.00;;;;;;5072991;28;20196;-70
2021/08/18 08:43:49;;;;;;;7.83;5.80;;;23.10;61.00;;;;;;5088454;28;20188;-66
2021/08/18 08:46:18;;;;;;;6.97;6.07;;;23.10;61.00;;;;;;5078437;28;20201;-66
2021/08/18 08:48:47;;;;;;;5.30;4.90;;;23.10;61.10;;;;;;5070146;28;20209;-67
2021/08/18 08:51:19;;;;;;;5.17;4.77;;;23.10;61.10;;;;;;5086404;28;20245;-66
2021/08/18 08:53:46;;;;;;;6.43;5.30;;;23.10;60.90;;;;;;5088194;28;20294;-68
2021/08/18 08:56:16;;;;;;;5.50;5.00;;;23.10;61.00;;;;;;5087668;28;20229;-69
2021/08/18 08:58:46;;;;;;;5.30;4.50;;;23.10;61.40;;;;;;5089312;28;20640;-70
2021/08/18 09:01:17;;;;;;;4.63;4.30;;;23.20;62.10;;;;;;5071192;28;20240;-69
2021/08/18 09:03:45;;;;;;;5.10;4.70;;;23.20;61.90;;;;;;5085759;28;20280;-67
2021/08/18 09:06:22;;;;;;;4.80;4.40;;;23.20;61.80;;;;;;5069327;28;20321;-65
2021/08/18 09:08:54;;;;;;;4.30;3.90;;;23.20;61.70;;;;;;5085984;28;20193;-68
2021/08/18 09:11:24;;;;;;;3.77;3.47;;;23.20;61.60;;;;;;5071673;28;20200;-67
2021/08/18 09:13:56;;;;;;;3.70;3.40;;;23.30;61.40;;;;;;5086894;28;20205;-70
2021/08/18 09:16:34;;;;;;;3.40;3.20;;;23.30;61.40;;;;;;5069361;28;20241;-70
2021/08/18 09:19:01;;;;;;;3.20;2.90;;;23.30;61.10;;;;;;5066161;28;20204;-70
2021/08/18 09:21:41;;;;;;;2.87;2.67;;;23.40;61.00;;;;;;5084655;28;20213;-70
2021/08/18 09:24:29;;;;;;;3.17;2.90;;;23.30;61.00;;;;;;5086550;28;20204;-66
2021/08/18 09:27:08;;;;;;;2.60;2.40;;;23.30;60.80;;;;;;5084399;28;20281;-68
2021/08/18 09:29:59;;;;;;;2.23;2.03;;;23.40;60.60;;;;;;5083807;28;20671;-68
2021/08/18 09:32:36;;;;;;;2.20;2.10;;;23.40;60.20;;;;;;5082909;28;20270;-68
2021/08/18 09:35:18;;;;;;;4.80;2.20;;;23.40;60.00;;;;;;5086334;28;20270;-68
2021/08/18 09:38:14;;;;;;;2.10;2.00;;;23.40;59.80;;;;;;5086583;28;20235;-69
2021/08/18 09:40:51;;;;;;;2.73;2.00;;;23.40;59.70;;;;;;5068324;28;20208;-66
2021/08/18 09:43:25;;;;;;;2.10;1.90;;;23.50;59.70;;;;;;5087674;28;20204;-66
2021/08/18 09:46:06;;;;;;;1.90;1.70;;;23.50;59.60;;;;;;5078869;28;20286;-68
2021/08/18 09:48:38;;;;;;;2.40;1.87;;;23.50;59.50;;;;;;5084995;28;20804;-69
2021/08/18 09:51:22;;;;;;;1.70;1.60;;;23.50;59.30;;;;;;5060212;28;20326;-69
2021/08/18 09:53:56;;;;;;;1.83;1.73;;;23.50;59.20;;;;;;5079449;28;20716;-68
2021/08/18 09:56:44;;;;;;;1.90;1.77;;;23.60;59.10;;;;;;5083493;28;20276;-67
2021/08/18 09:59:16;;;;;;;3.90;1.70;;;23.60;59.00;;;;;;5063268;28;20214;-66
2021/08/18 10:01:49;;;;;;;1.47;1.40;;;23.60;59.00;;;;;;5070606;28;20197;-68
2021/08/18 10:04:18;;;;;;;1.53;1.43;;;23.60;59.00;;;;;;5094283;28;20223;-66
2021/08/18 10:06:50;;;;;;;2.33;1.70;;;23.60;59.10;;;;;;5074782;28;20206;-67
2021/08/18 10:09:21;;;;;;;1.40;1.30;;;23.60;59.00;;;;;;5076780;28;20212;-68
2021/08/18 10:11:51;;;;;;;1.20;1.20;;;23.60;58.80;;;;;;5087854;28;20197;-68
2021/08/18 10:14:21;;;;;;;2.43;1.70;;;23.60;58.90;;;;;;5068704;28;20209;-67
2021/08/18 10:16:50;;;;;;;1.97;1.87;;;23.60;59.00;;;;;;5046981;28;20222;-66
2021/08/18 10:19:28;;;;;;;1.97;1.77;;;23.70;58.90;;;;;;5058058;28;20292;-66
2021/08/18 10:22:02;;;;;;;3.40;1.63;;;23.70;59.00;;;;;;5065447;28;20198;-65
2021/08/18 10:24:38;;;;;;;2.20;2.00;;;23.70;59.30;;;;;;5068700;28;20185;-68
2021/08/18 10:27:08;;;;;;;2.27;2.10;;;23.70;59.30;;;;;;5065752;28;20624;-65
2021/08/18 10:29:39;;;;;;;2.07;1.87;;;23.60;59.10;;;;;;5069658;28;20667;-63
2021/08/18 10:32:12;;;;;;;2.37;2.17;;;23.70;59.10;;;;;;5066581;28;20647;-64
2021/08/18 10:34:47;;;;;;;2.10;1.90;;;23.60;59.30;;;;;;5053293;28;20224;-64
2021/08/18 10:37:21;;;;;;;2.60;2.30;;;23.60;59.40;;;;;;5055763;28;20221;-64
2021/08/18 10:39:55;;;;;;;2.83;2.50;;;23.50;59.50;;;;;;5066841;28;20209;-64
2021/08/18 10:42:47;;;;;;;2.90;2.60;;;23.50;59.60;;;;;;5084909;28;20193;-62
2021/08/18 10:45:27;;;;;;;2.40;2.20;;;23.40;59.70;;;;;;5037828;28;20202;-64
2021/08/18 10:48:58;;;;;;;2.90;2.60;;;23.40;59.70;;;;;;5067261;28;20559;-64
2021/08/18 10:51:50;;;;;;;2.17;2.07;;;23.40;59.80;;;;;;5071274;28;20212;-64
2021/08/18 10:54:34;;;;;;;2.50;2.20;;;23.40;59.90;;;;;;5066200;28;20721;-64
2021/08/18 10:57:27;;;;;;;2.83;2.00;;;23.40;60.00;;;;;;5059703;28;20209;-65
2021/08/18 11:00:14;;;;;;;2.37;2.17;;;23.30;60.20;;;;;;5066051;28;20206;-65
2021/08/18 11:02:57;;;;;;;2.57;2.30;;;23.30;60.20;;;;;;5068514;28;20585;-63
2021/08/18 11:05:30;;;;;;;2.57;2.37;;;23.30;60.30;;;;;;5070583;28;20712;-64
2021/08/18 11:08:16;;;;;;;2.23;2.03;;;23.30;60.40;;;;;;5053111;28;20206;-63
2021/08/18 11:10:55;;;;;;;2.95;2.20;;;23.30;60.50;;;;;;5070402;28;20412;-65
2021/08/18 11:14:07;;;;;;;2.03;1.80;;;23.40;60.70;;;;;;5067313;28;20193;-68
2021/08/18 11:16:38;;;;;;;2.30;2.10;;;23.50;60.50;;;;;;5088588;28;20229;-65
2021/08/18 11:19:11;;;;;;;2.73;2.17;;;23.50;60.10;;;;;;5090046;28;20201;-65
2021/08/18 11:21:44;;;;;;;2.20;1.97;;;23.50;59.90;;;;;;5054316;28;20243;-67
2021/08/18 11:24:16;;;;;;;2.43;2.23;;;23.50;60.00;;;;;;5073086;28;20588;-66
2021/08/18 11:26:53;;;;;;;2.67;2.47;;;23.40;60.50;;;;;;5082976;28;20649;-66
2021/08/18 11:29:30;;;;;;;5.17;2.73;;;23.40;60.70;;;;;;5086834;28;20193;-65
2021/08/18 11:31:59;;;;;;;3.00;2.80;;;23.50;60.70;;;;;;5088674;28;20224;-65
2021/08/18 11:34:39;;;;;;;3.10;2.90;;;23.50;60.50;;;;;;5086974;28;20319;-65
2021/08/18 11:37:12;;;;;;;3.23;3.03;;;23.50;60.40;;;;;;5073443;28;20214;-66
2021/08/18 11:39:52;;;;;;;3.33;3.10;;;23.50;60.30;;;;;;5073724;28;20212;-67
2021/08/18 11:42:33;;;;;;;4.10;3.57;;;23.50;60.30;;;;;;5085157;28;20201;-67
2021/08/18 11:45:15;;;;;;;4.30;3.90;;;23.50;60.40;;;;;;5089710;28;20282;-68
2021/08/18 11:47:46;;;;;;;3.73;3.43;;;23.60;60.50;;;;;;5087947;28;20542;-66
2021/08/18 11:50:15;;;;;;;4.33;3.93;;;23.50;60.40;;;;;;5087864;28;20208;-67
2021/08/18 11:52:44;;;;;;;4.53;4.23;;;23.60;60.50;;;;;;5086639;28;20246;-67
2021/08/18 11:55:16;;;;;;;4.60;4.20;;;23.60;60.40;;;;;;5082755;28;20192;-69
2021/08/18 11:57:56;;;;;;;5.00;4.57;;;23.60;60.60;;;;;;5079209;28;20228;-68
2021/08/18 12:00:29;;;;;;;4.97;4.57;;;23.60;61.00;;;;;;5087852;28;20440;-67
2021/08/18 12:03:01;;;;;;;5.53;5.03;;;23.60;61.40;;;;;;5087726;28;20598;-68
2021/08/18 12:05:39;;;;;;;6.00;5.50;;;23.60;61.60;;;;;;5081709;28;20227;-68
2021/08/18 12:08:15;;;;;;;6.73;6.13;;;23.60;61.80;;;;;;5086705;28;20627;-67
2021/08/18 12:10:47;;;;;;;6.63;5.27;;;23.70;61.90;;;;;;5082258;28;20197;-68
2021/08/18 12:13:53;;;;;;;6.67;6.07;;;23.60;61.90;;;;;;5074404;28;20202;-67
2021/08/18 12:16:24;;;;;;;8.20;5.90;;;23.70;61.70;;;;;;5068536;28;20228;-68
2021/08/18 12:19:22;;;;;;;5.97;5.53;;;23.70;61.80;;;;;;5045155;28;20208;-68
2021/08/18 12:22:16;;;;;;;6.47;5.87;;;23.70;61.50;;;;;;5066482;28;20209;-69
2021/08/18 12:24:53;;;;;;;7.23;6.00;;;23.70;61.50;;;;;;5059074;28;20258;-67
2021/08/18 12:27:27;;;;;;;7.03;6.33;;;23.80;61.20;;;;;;5048778;28;20216;-69
2021/08/18 12:30:15;;;;;;;7.10;6.40;;;23.70;61.10;;;;;;5058061;28;20271;-69
2021/08/18 12:32:46;;;;;;;7.20;6.60;;;23.80;61.10;;;;;;5063413;28;20206;-67
2021/08/18 12:35:19;;;;;;;7.00;6.50;;;23.80;60.90;;;;;;5066164;28;20220;-67
2021/08/18 12:37:53;;;;;;;6.20;5.60;;;23.80;61.00;;;;;;5051147;28;20235;-68
2021/08/18 12:40:28;;;;;;;8.60;7.80;;;23.80;60.60;;;;;;5035214;28;20201;-68
2021/08/18 12:43:01;;;;;;;8.07;6.97;;;23.80;61.30;;;;;;5050638;28;20278;-66
2021/08/18 12:45:35;;;;;;;7.33;6.63;;;23.90;60.50;;;;;;5041037;28;20194;-66
2021/08/18 12:48:04;;;;;;;10.10;7.27;;;23.90;60.30;;;;;;5066752;28;20225;-66
2021/08/18 12:50:39;;;;;;;7.20;6.60;;;23.90;60.20;;;;;;5061464;28;20190;-67
2021/08/18 12:53:10;;;;;;;10.07;9.27;;;23.90;60.30;;;;;;5065456;28;20202;-67
2021/08/18 12:55:43;;;;;;;7.63;6.90;;;23.90;61.00;;;;;;5051850;28;20210;-67
2021/08/18 12:58:24;;;;;;;7.87;7.17;;;24.00;60.20;;;;;;5065723;28;20229;-67
2021/08/18 13:01:03;;;;;;;7.80;7.20;;;24.00;60.30;;;;;;5043443;28;20224;-67
2021/08/18 13:03:31;;;;;;;7.30;6.60;;;23.90;60.30;;;;;;5059566;28;20711;-68
2021/08/18 13:06:01;;;;;;;7.40;6.80;;;23.90;60.20;;;;;;5052231;28;20197;-67
2021/08/18 13:08:33;;;;;;;7.90;7.30;;;23.90;60.50;;;;;;5063611;28;20497;-67
2021/08/18 13:11:07;;;;;;;8.37;7.57;;;23.90;60.70;;;;;;5049477;28;20213;-67
2021/08/18 13:13:36;;;;;;;8.90;8.20;;;23.90;60.80;;;;;;5067212;28;20216;-67
2021/08/18 13:16:04;;;;;;;8.67;7.97;;;23.90;60.90;;;;;;5052924;28;20229;-67